Time;durP1;ratioP1;P1;durP2;ratioP2;P2;SDS_P1;SDS_P2;PMS_P1;PMS_P2;Temp;Humidity;BMP_temperature;BMP_pressure;BME280_temperature;BME280_humidity;BME280_pressure;Samples;Min_cycle;Max_cycle;Signal;HPM_P1;HPM_P2
2022/05/18 00:01:39;;;;;;;2.75;2.17;;;17.90;99.90;;;;;;4872503;29;20040;-85
2022/05/18 00:04:05;;;;;;;5.65;3.20;;;17.80;99.90;;;;;;4876325;29;20372;-84
2022/05/18 00:06:31;;;;;;;4.53;2.42;;;17.80;99.90;;;;;;4878120;29;20048;-85
2022/05/18 00:08:57;;;;;;;4.00;2.45;;;17.70;99.90;;;;;;4880476;29;20144;-85
2022/05/18 00:11:23;;;;;;;2.53;2.07;;;17.70;99.90;;;;;;4882778;29;20044;-85
2022/05/18 00:13:51;;;;;;;3.92;2.22;;;17.60;99.90;;;;;;4867038;29;20375;-87
2022/05/18 00:16:18;;;;;;;7.57;2.72;;;17.60;99.90;;;;;;4880503;29;20170;-86
2022/05/18 00:18:45;;;;;;;4.55;2.80;;;17.60;99.90;;;;;;4867239;29;20045;-85
2022/05/18 00:21:11;;;;;;;5.32;2.50;;;17.50;99.90;;;;;;4898769;29;20883;-85
2022/05/18 00:23:37;;;;;;;3.85;2.30;;;17.50;99.90;;;;;;4882783;29;20048;-85
2022/05/18 00:26:03;;;;;;;4.17;2.70;;;17.40;99.90;;;;;;4865702;29;20125;-85
2022/05/18 00:28:30;;;;;;;3.13;2.75;;;17.40;99.90;;;;;;4891009;29;20300;-85
2022/05/18 00:30:56;;;;;;;;;;;17.40;99.90;;;;;;4881419;29;20059;-85
2022/05/18 00:33:22;;;;;;;5.22;2.20;;;17.30;99.90;;;;;;4880029;29;19995;-85
2022/05/18 00:35:48;;;;;;;2.70;2.33;;;17.30;99.90;;;;;;4880660;29;20460;-85
2022/05/18 00:38:13;;;;;;;6.10;3.13;;;17.30;99.90;;;;;;4880278;29;20092;-85
2022/05/18 00:40:43;;;;;;;4.82;2.85;;;17.20;99.90;;;;;;4896097;29;20048;-85
2022/05/18 00:43:29;;;;;;;2.90;2.58;;;17.20;99.90;;;;;;4880875;29;20060;-85
2022/05/18 00:46:00;;;;;;;4.15;2.78;;;17.20;99.90;;;;;;4881137;29;20065;-85
2022/05/18 00:48:26;;;;;;;4.80;2.92;;;17.20;99.90;;;;;;4880917;29;20083;-85
2022/05/18 00:50:54;;;;;;;4.97;3.15;;;17.10;99.90;;;;;;4880920;29;20076;-85
2022/05/18 00:53:27;;;;;;;2.85;2.40;;;17.10;99.90;;;;;;4865658;29;20113;-85
2022/05/18 00:56:00;;;;;;;4.85;3.15;;;17.00;99.90;;;;;;4897036;29;20088;-85
2022/05/18 00:58:34;;;;;;;3.08;2.45;;;17.00;99.90;;;;;;4880368;29;20056;-85
2022/05/18 01:01:00;;;;;;;3.33;2.85;;;17.00;99.90;;;;;;4862607;29;20054;-85
2022/05/18 01:03:34;;;;;;;2.78;2.58;;;17.00;99.90;;;;;;4880271;29;20040;-85
2022/05/18 01:06:25;;;;;;;3.22;2.35;;;17.00;99.90;;;;;;4880953;29;20053;-85
2022/05/18 01:09:13;;;;;;;2.88;2.65;;;16.90;99.90;;;;;;4880942;29;20124;-85
2022/05/18 01:11:39;;;;;;;3.05;2.45;;;16.90;99.90;;;;;;4864109;29;20116;-85
2022/05/18 01:14:20;;;;;;;5.15;3.78;;;16.90;99.90;;;;;;4881042;29;20041;-85
2022/05/18 01:16:47;;;;;;;2.95;2.67;;;16.90;99.90;;;;;;4897942;29;20407;-85
2022/05/18 01:19:36;;;;;;;4.55;2.92;;;16.90;99.90;;;;;;4879194;29;20048;-85
2022/05/18 01:22:28;;;;;;;3.63;2.85;;;16.90;99.90;;;;;;4897399;29;20056;-85
2022/05/18 01:24:57;;;;;;;4.32;3.38;;;16.80;99.90;;;;;;4880408;29;20053;-85
2022/05/18 01:27:22;;;;;;;6.00;3.08;;;16.80;99.90;;;;;;4864624;29;20062;-85
2022/05/18 01:29:48;;;;;;;4.23;3.50;;;16.70;99.90;;;;;;4895798;29;20054;-86
2022/05/18 01:32:15;;;;;;;3.23;2.87;;;16.70;99.90;;;;;;4864155;29;20092;-85
2022/05/18 01:34:42;;;;;;;3.80;3.08;;;16.70;99.90;;;;;;4895961;29;20385;-85
2022/05/18 01:37:13;;;;;;;5.05;2.67;;;16.70;99.90;;;;;;4878804;29;20048;-85
2022/05/18 01:39:45;;;;;;;4.28;2.65;;;16.70;99.90;;;;;;4878876;29;20076;-85
2022/05/18 01:42:27;;;;;;;9.30;2.97;;;16.60;99.90;;;;;;4878718;29;20067;-85
2022/05/18 01:44:53;;;;;;;4.53;2.50;;;16.70;99.90;;;;;;4880257;29;20447;-85
2022/05/18 01:47:19;;;;;;;2.85;2.60;;;16.60;99.90;;;;;;4880354;29;20064;-86
2022/05/18 01:49:46;;;;;;;4.05;3.40;;;16.60;99.90;;;;;;4879028;29;20108;-85
2022/05/18 01:52:12;;;;;;;2.53;2.33;;;16.60;99.90;;;;;;4879317;29;20491;-85
2022/05/18 01:54:40;;;;;;;6.18;2.80;;;16.60;99.90;;;;;;4865596;29;20079;-85
2022/05/18 01:57:06;;;;;;;7.80;2.75;;;16.50;99.90;;;;;;4895286;29;20052;-86
2022/05/18 01:59:31;;;;;;;7.45;2.80;;;16.40;99.90;;;;;;4874672;29;20530;-85
2022/05/18 02:01:58;;;;;;;3.23;2.40;;;16.50;99.90;;;;;;4863312;29;20079;-86
2022/05/18 02:04:23;;;;;;;5.75;2.92;;;16.40;99.90;;;;;;4879122;29;20044;-85
2022/05/18 02:06:49;;;;;;;3.55;2.47;;;16.40;99.90;;;;;;4880336;29;20059;-85
2022/05/18 02:09:16;;;;;;;3.80;2.77;;;16.40;99.90;;;;;;4863739;29;20051;-86
2022/05/18 02:11:42;;;;;;;5.18;3.00;;;16.40;99.90;;;;;;4879453;29;20312;-85
2022/05/18 02:14:09;;;;;;;6.70;3.60;;;16.40;99.90;;;;;;4880529;29;20112;-85
2022/05/18 02:16:37;;;;;;;3.72;3.08;;;16.30;99.90;;;;;;4879642;29;20147;-85
2022/05/18 02:19:04;;;;;;;3.60;3.30;;;16.30;99.90;;;;;;4865264;29;20080;-85
2022/05/18 02:21:29;;;;;;;;;;;16.30;99.90;;;;;;4880426;29;20052;-85
2022/05/18 02:23:55;;;;;;;2.78;2.38;;;16.20;99.90;;;;;;4862373;29;19924;-86
2022/05/18 02:26:21;;;;;;;4.97;4.20;;;16.20;99.90;;;;;;4863911;29;20082;-85
2022/05/18 02:28:47;;;;;;;4.60;3.13;;;16.20;99.90;;;;;;4879039;29;20113;-86
2022/05/18 02:31:14;;;;;;;5.90;3.55;;;16.10;99.90;;;;;;4876559;29;20119;-85
2022/05/18 02:33:39;;;;;;;;;;;16.10;99.90;;;;;;4877849;29;20415;-86
2022/05/18 02:36:07;;;;;;;3.13;2.03;;;16.10;99.90;;;;;;4878580;29;19923;-85
2022/05/18 02:38:34;;;;;;;4.05;3.33;;;16.10;99.90;;;;;;4879077;29;20086;-85
2022/05/18 02:41:00;;;;;;;2.50;2.30;;;16.10;99.90;;;;;;4845954;29;20115;-85
2022/05/18 02:43:26;;;;;;;3.85;2.83;;;16.10;99.90;;;;;;4878648;29;20048;-85
2022/05/18 02:46:07;;;;;;;;;;;16.00;99.90;;;;;;4879692;29;20048;-85
2022/05/18 02:48:33;;;;;;;4.70;3.47;;;16.00;99.90;;;;;;4878521;29;19927;-85
2022/05/18 02:50:59;;;;;;;3.45;2.80;;;16.00;99.90;;;;;;4864410;29;20055;-85
2022/05/18 02:53:24;;;;;;;6.25;2.50;;;16.00;99.90;;;;;;4878644;29;20396;-86
2022/05/18 02:56:06;;;;;;;3.70;2.80;;;15.90;99.90;;;;;;4879058;29;20100;-85
2022/05/18 02:58:47;;;;;;;6.35;3.95;;;15.90;99.90;;;;;;4878270;29;20869;-85
2022/05/18 03:01:25;;;;;;;7.63;3.58;;;15.90;99.90;;;;;;4877508;29;20041;-85
2022/05/18 03:03:52;;;;;;;5.65;3.38;;;15.90;99.90;;;;;;4879617;29;21571;-86
2022/05/18 03:06:22;;;;;;;4.85;3.30;;;15.90;99.90;;;;;;4858480;29;20052;-85
2022/05/18 03:08:48;;;;;;;4.55;3.05;;;15.90;99.90;;;;;;4879381;29;20052;-85
2022/05/18 03:11:14;;;;;;;4.45;3.72;;;15.90;99.90;;;;;;4879052;29;20048;-85
2022/05/18 03:13:41;;;;;;;7.07;4.90;;;15.80;99.90;;;;;;4862911;29;20527;-85
2022/05/18 03:16:07;;;;;;;4.00;3.13;;;15.80;99.90;;;;;;4862190;29;20488;-85
2022/05/18 03:18:33;;;;;;;5.55;2.83;;;15.70;99.90;;;;;;4877796;29;20667;-85
2022/05/18 03:23:44;;;;;;;5.45;2.83;;;15.60;99.90;;;;;;4879503;29;20087;-85
2022/05/18 03:26:15;;;;;;;5.68;3.20;;;15.60;99.90;;;;;;4891154;29;20128;-85
2022/05/18 03:28:43;;;;;;;4.10;3.40;;;15.50;99.90;;;;;;4878184;29;20522;-85
2022/05/18 03:31:09;;;;;;;6.57;3.08;;;15.50;99.90;;;;;;4894539;29;20091;-85
2022/05/18 03:33:36;;;;;;;4.82;3.13;;;15.40;99.90;;;;;;4877099;29;20048;-85
2022/05/18 03:36:02;;;;;;;5.88;3.33;;;15.40;99.90;;;;;;4862463;29;20411;-85
2022/05/18 03:38:28;;;;;;;;;;;15.40;99.90;;;;;;4862373;29;20523;-84
2022/05/18 03:40:55;;;;;;;4.13;3.47;;;15.40;99.90;;;;;;4878060;29;19970;-85
2022/05/18 03:43:21;;;;;;;4.22;2.92;;;15.40;99.90;;;;;;4877528;29;20052;-86
2022/05/18 03:45:48;;;;;;;4.93;3.55;;;15.30;99.90;;;;;;4879568;29;20055;-85
2022/05/18 03:48:16;;;;;;;5.68;3.80;;;15.30;99.90;;;;;;4877514;29;20131;-85
2022/05/18 03:50:44;;;;;;;5.47;2.70;;;15.30;99.90;;;;;;4894851;29;20144;-86
2022/05/18 03:53:11;;;;;;;3.95;3.53;;;15.30;99.90;;;;;;4877903;29;20051;-85
2022/05/18 03:55:39;;;;;;;4.72;3.55;;;15.30;99.90;;;;;;4876602;29;20080;-85
2022/05/18 03:58:05;;;;;;;6.38;3.35;;;15.30;99.90;;;;;;4876197;29;20052;-85
2022/05/18 04:00:32;;;;;;;3.78;3.35;;;15.30;99.90;;;;;;4893015;29;20514;-85
2022/05/18 04:02:58;;;;;;;7.35;3.65;;;15.20;99.90;;;;;;4892186;29;20080;-85
2022/05/18 04:05:24;;;;;;;4.68;3.90;;;15.20;99.90;;;;;;4877702;29;20120;-85
2022/05/18 04:07:50;;;;;;;4.93;3.30;;;15.20;99.90;;;;;;4894314;29;20128;-85
2022/05/18 04:10:16;;;;;;;3.85;3.38;;;15.20;99.90;;;;;;4878081;29;20052;-85
2022/05/18 04:12:43;;;;;;;;;;;15.20;99.90;;;;;;4878399;29;20051;-85
2022/05/18 04:15:10;;;;;;;4.75;3.10;;;15.20;99.90;;;;;;4862280;29;20396;-85
2022/05/18 04:17:36;;;;;;;3.97;2.88;;;15.20;99.90;;;;;;4894224;29;20440;-85
2022/05/18 04:20:05;;;;;;;4.15;3.30;;;15.20;99.90;;;;;;4877596;29;20051;-86
2022/05/18 04:22:32;;;;;;;5.85;4.47;;;15.20;99.90;;;;;;4878246;29;20071;-85
2022/05/18 04:25:01;;;;;;;3.80;3.28;;;15.20;99.90;;;;;;4862289;29;20108;-85
2022/05/18 04:27:28;;;;;;;3.95;3.35;;;15.20;99.90;;;;;;4877810;29;20120;-86
2022/05/18 04:29:54;;;;;;;4.95;3.53;;;16.60;99.90;;;;;;4859263;29;20500;-85
2022/05/18 04:32:21;;;;;;;4.90;3.63;;;15.30;99.90;;;;;;4879011;29;20076;-84
2022/05/18 04:34:48;;;;;;;4.30;3.45;;;15.30;99.90;;;;;;4893922;29;20515;-85
2022/05/18 04:37:15;;;;;;;7.20;4.10;;;15.30;99.90;;;;;;4877420;29;20123;-85
2022/05/18 04:39:41;;;;;;;5.28;4.28;;;15.40;99.90;;;;;;4877364;29;20044;-85
2022/05/18 04:42:07;;;;;;;5.88;4.53;;;15.40;99.90;;;;;;4877580;29;20061;-84
2022/05/18 04:44:32;;;;;;;9.73;4.63;;;15.40;99.90;;;;;;4878617;29;20388;-84
2022/05/18 04:46:58;;;;;;;7.17;3.73;;;15.50;99.90;;;;;;4862860;29;20055;-85
2022/05/18 04:49:26;;;;;;;4.35;3.40;;;15.50;99.90;;;;;;4877195;29;20048;-86
2022/05/18 04:51:52;;;;;;;6.28;3.83;;;15.60;99.90;;;;;;4878536;29;20045;-84
2022/05/18 04:54:17;;;;;;;4.80;3.73;;;15.70;99.90;;;;;;4895485;29;20411;-85
2022/05/18 04:56:43;;;;;;;6.53;3.50;;;15.80;99.90;;;;;;4880937;29;20044;-85
2022/05/18 04:59:09;;;;;;;6.35;4.07;;;16.20;99.90;;;;;;4878984;29;20646;-85
2022/05/18 05:01:35;;;;;;;4.97;3.60;;;16.60;99.90;;;;;;4880779;29;20068;-85
2022/05/18 05:04:02;;;;;;;5.50;4.53;;;17.10;99.90;;;;;;4881714;29;20048;-83
2022/05/18 05:06:28;;;;;;;3.92;3.53;;;17.40;99.90;;;;;;4900133;29;20045;-88
2022/05/18 05:08:56;;;;;;;3.87;2.93;;;17.60;99.90;;;;;;4879051;29;20495;-86
2022/05/18 05:11:25;;;;;;;4.95;4.20;;;17.70;99.90;;;;;;4864599;29;20460;-84
2022/05/18 05:13:50;;;;;;;6.97;4.72;;;17.80;99.90;;;;;;4865674;29;20509;-84
2022/05/18 05:16:16;;;;;;;8.43;4.50;;;17.90;99.90;;;;;;4881260;29;20053;-84
2022/05/18 05:18:42;;;;;;;3.90;3.40;;;18.00;99.90;;;;;;4880649;29;20117;-84
2022/05/18 05:21:08;;;;;;;5.03;4.03;;;18.10;99.90;;;;;;4880171;29;20297;-83
2022/05/18 05:23:33;;;;;;;4.70;4.00;;;18.30;99.90;;;;;;4878618;29;20120;-84
2022/05/18 05:25:59;;;;;;;6.88;4.30;;;18.50;99.90;;;;;;4880437;29;20558;-83
2022/05/18 05:28:26;;;;;;;4.57;3.67;;;18.80;99.90;;;;;;4881604;29;20056;-83
2022/05/18 05:30:52;;;;;;;7.47;4.43;;;19.00;99.90;;;;;;4878031;29;20055;-82
2022/05/18 05:33:18;;;;;;;7.78;4.10;;;19.30;99.90;;;;;;4880045;29;20056;-82
2022/05/18 05:35:44;;;;;;;4.03;3.35;;;19.50;99.90;;;;;;4896350;29;20121;-83
2022/05/18 05:38:11;;;;;;;4.75;3.63;;;19.70;99.90;;;;;;4896017;29;20060;-83
2022/05/18 05:40:37;;;;;;;4.13;3.15;;;19.90;99.90;;;;;;4895477;29;20052;-83
2022/05/18 05:43:08;;;;;;;7.15;4.38;;;20.10;99.90;;;;;;4880082;29;20056;-84
2022/05/18 05:45:33;;;;;;;3.65;3.35;;;20.30;99.90;;;;;;4879412;29;20139;-84
2022/05/18 05:47:59;;;;;;;6.88;3.85;;;20.40;99.90;;;;;;4898263;29;20460;-83
2022/05/18 05:50:26;;;;;;;5.00;3.80;;;20.60;99.90;;;;;;4880731;29;20056;-83
2022/05/18 05:52:52;;;;;;;5.95;4.63;;;20.80;99.90;;;;;;4869278;29;20084;-83
2022/05/18 05:55:18;;;;;;;4.35;3.40;;;21.00;99.90;;;;;;4860195;29;20447;-88
2022/05/18 05:57:44;;;;;;;;;;;21.10;99.90;;;;;;4865653;29;20507;-83
2022/05/18 06:00:10;;;;;;;4.05;3.42;;;21.30;99.90;;;;;;4878240;29;19981;-84
2022/05/18 06:02:39;;;;;;;;;;;21.60;99.90;;;;;;4879914;29;20057;-87
2022/05/18 06:05:08;;;;;;;6.38;3.47;;;21.70;99.90;;;;;;4880599;29;19930;-91
2022/05/18 06:16:10;;;;;;;;;;;;;;;;;;;;;
2022/05/18 06:23:47;;;;;;;;;;;;;;;;;;;;;
2022/05/18 06:31:10;;;;;;;7.35;3.92;;;21.80;99.90;;;;;;4716008;30;20067;-95
2022/05/18 06:33:51;;;;;;;5.70;3.47;;;21.60;99.90;;;;;;4736198;29;20069;-94
2022/05/18 06:36:36;;;;;;;;;;;;;;;;;;;;;
2022/05/18 06:39:18;;;;;;;7.93;3.55;;;21.20;99.90;;;;;;4849556;29;20057;-94
2022/05/18 06:41:53;;;;;;;4.03;3.25;;;20.60;99.90;;;;;;4833848;29;20143;-93
2022/05/18 06:44:28;;;;;;;4.80;3.78;;;21.60;99.90;;;;;;4848286;29;20045;-94
2022/05/18 06:47:05;;;;;;;6.32;4.10;;;21.60;99.90;;;;;;4847589;29;20053;-95
2022/05/18 06:49:44;;;;;;;4.50;4.07;;;21.80;99.90;;;;;;4850517;29;20113;-94
2022/05/18 06:52:11;;;;;;;5.13;3.45;;;22.00;99.90;;;;;;4877196;29;20044;-94
2022/05/18 06:58:29;;;;;;;3.88;3.35;;;22.30;99.90;;;;;;4895041;29;20080;-95
2022/05/18 07:01:07;;;;;;;;;;;;;;;;;;;;;
2022/05/18 07:03:45;;;;;;;6.85;4.38;;;22.50;99.90;;;;;;4882628;29;20059;-95
2022/05/18 07:06:44;;;;;;;;;;;;;;;;;;;;;
2022/05/18 07:09:21;;;;;;;4.15;3.67;;;23.10;99.90;;;;;;4881269;29;20104;-94
2022/05/18 07:11:56;;;;;;;6.25;3.00;;;23.40;99.90;;;;;;4866898;29;20502;-95
2022/05/18 07:14:44;;;;;;;4.43;3.35;;;23.60;99.90;;;;;;4881768;29;20057;-94
2022/05/18 07:17:19;;;;;;;5.80;4.47;;;23.80;99.90;;;;;;4849485;29;20063;-96
2022/05/18 07:20:31;;;;;;;4.00;2.95;;;24.00;99.90;;;;;;4867363;29;20044;-95
2022/05/18 07:23:02;;;;;;;4.65;2.95;;;24.20;99.90;;;;;;4785493;29;20055;-94
2022/05/18 07:26:19;;;;;;;;;;;;;;;;;;;;;
2022/05/18 07:28:59;;;;;;;4.28;3.20;;;24.40;99.90;;;;;;4856264;29;20053;-95
2022/05/18 07:35:07;;;;;;;;;;;;;;;;;;;;;
2022/05/18 07:40:49;;;;;;;;;;;;;;;;;;;;;
2022/05/18 07:43:54;;;;;;;;;;;;;;;;;;;;;
2022/05/18 07:47:14;;;;;;;3.47;2.75;;;24.60;99.90;;;;;;4871595;29;20061;-95
2022/05/18 07:50:18;;;;;;;5.03;3.38;;;25.10;99.90;;;;;;4896797;29;20416;-95
2022/05/18 07:53:55;;;;;;;3.75;3.00;;;25.40;99.90;;;;;;4831601;29;20061;-94
2022/05/18 07:57:01;;;;;;;3.55;2.78;;;25.50;99.90;;;;;;4880449;29;20131;-96
2022/05/18 08:00:05;;;;;;;4.50;2.50;;;25.50;99.90;;;;;;4808322;29;20094;-95
2022/05/18 08:03:51;;;;;;;;;;;;;;;;;;;;;
2022/05/18 08:06:58;;;;;;;;;;;;;;;;;;;;;
2022/05/18 08:17:10;;;;;;;3.28;2.25;;;25.80;97.80;;;;;;4806993;29;20062;-93
2022/05/18 08:24:25;;;;;;;;;;;;;;;;;;;;;
2022/05/18 08:37:10;;;;;;;4.68;2.50;;;26.70;96.30;;;;;;4876291;29;20055;-94
2022/05/18 08:54:47;;;;;;;;;;;;;;;;;;;;;
2022/05/18 08:58:01;;;;;;;;;;;;;;;;;;;;;
2022/05/18 09:05:04;;;;;;;;;;;;;;;;;;;;;
2022/05/18 09:11:12;;;;;;;2.55;2.33;;;27.80;91.00;;;;;;4824121;29;20185;-94
2022/05/18 09:14:08;;;;;;;;;;;;;;;;;;;;;
2022/05/18 09:17:36;;;;;;;;;;;;;;;;;;;;;
2022/05/18 09:20:15;;;;;;;;;;;;;;;;;;;;;
2022/05/18 09:26:44;;;;;;;;;;;;;;;;;;;;;
2022/05/18 09:33:45;;;;;;;6.10;3.15;;;28.10;90.50;;;;;;4874258;29;20049;-94
2022/05/18 09:36:46;;;;;;;3.50;2.60;;;28.10;89.60;;;;;;4868168;29;20053;-95
2022/05/18 09:40:11;;;;;;;;;;;;;;;;;;;;;
2022/05/18 09:43:04;;;;;;;;;;;;;;;;;;;;;
2022/05/18 09:46:40;;;;;;;;;;;;;;;;;;;;;
2022/05/18 09:49:50;;;;;;;3.22;2.75;;;28.10;88.40;;;;;;4864431;29;20099;-94
2022/05/18 09:52:26;;;;;;;4.38;2.90;;;28.30;89.40;;;;;;4879261;29;20053;-93
2022/05/18 09:58:39;;;;;;;5.07;3.05;;;28.40;88.60;;;;;;4835506;29;20053;-94
2022/05/18 10:09:17;;;;;;;3.78;2.47;;;28.60;86.80;;;;;;4770968;30;20068;-93
2022/05/18 10:19:36;;;;;;;4.90;3.00;;;28.50;84.30;;;;;;4695662;30;20054;-92
2022/05/18 10:22:40;;;;;;;3.83;2.97;;;28.40;85.30;;;;;;4694230;30;20053;-93
2022/05/18 10:26:14;;;;;;;;;;;;;;;;;;;;;
2022/05/18 10:29:28;;;;;;;;;;;;;;;;;;;;;
2022/05/18 10:51:19;;;;;;;;;;;;;;;;;;;;;
2022/05/18 10:54:40;;;;;;;;;;;;;;;;;;;;;
2022/05/18 10:57:37;;;;;;;6.15;3.90;;;29.40;81.70;;;;;;4716127;30;20061;-95
2022/05/18 11:01:04;;;;;;;6.38;3.78;;;29.40;82.40;;;;;;4728733;29;20211;-95
2022/05/18 11:04:15;;;;;;;;;;;;;;;;;;;;;
2022/05/18 11:06:58;;;;;;;3.33;2.75;;;29.30;81.30;;;;;;4742116;29;20052;-92
2022/05/18 11:13:48;;;;;;;6.90;4.03;;;29.50;78.70;;;;;;4762789;30;20095;-93
2022/05/18 11:20:51;;;;;;;4.22;3.40;;;29.60;79.10;;;;;;4683906;30;20552;-93
2022/05/18 11:24:06;;;;;;;4.65;3.53;;;29.70;79.50;;;;;;4718664;30;20056;-94
2022/05/18 11:26:55;;;;;;;5.60;4.50;;;28.80;78.30;;;;;;4735310;30;20052;-93
2022/05/18 11:30:16;;;;;;;7.18;4.57;;;29.70;79.00;;;;;;4749318;30;20524;-93
2022/05/18 11:33:51;;;;;;;5.10;3.35;;;28.90;78.90;;;;;;4744214;30;20562;-93
2022/05/18 11:37:07;;;;;;;3.58;3.13;;;29.80;79.70;;;;;;4749108;30;20054;-93
2022/05/18 11:40:12;;;;;;;;;;;;;;;;;;;;;
2022/05/18 11:43:57;;;;;;;;;;;;;;;;;;;;;
2022/05/18 11:50:39;;;;;;;;;;;;;;;;;;;;;
2022/05/18 11:53:37;;;;;;;;;;;;;;;;;;;;;
2022/05/18 11:57:04;;;;;;;;;;;;;;;;;;;;;
2022/05/18 12:00:49;;;;;;;;;;;;;;;;;;;;;
2022/05/18 12:03:47;;;;;;;6.70;3.78;;;29.40;75.90;;;;;;4876135;29;20078;-91
2022/05/18 12:07:31;;;;;;;;;;;;;;;;;;;;;
2022/05/18 12:10:15;;;;;;;7.18;3.25;;;29.60;77.00;;;;;;4880340;29;20081;-89
2022/05/18 12:13:55;;;;;;;;;;;;;;;;;;;;;
2022/05/18 12:17:12;;;;;;;4.50;2.25;;;29.70;75.30;;;;;;4791826;29;20159;-90
2022/05/18 12:20:09;;;;;;;4.43;3.42;;;29.40;75.00;;;;;;4781112;29;20070;-90
2022/05/18 12:22:51;;;;;;;5.57;2.88;;;29.20;75.30;;;;;;4776475;29;20068;-90
2022/05/18 12:26:01;;;;;;;6.05;4.50;;;29.10;76.90;;;;;;4873086;29;20060;-90
2022/05/18 12:28:55;;;;;;;6.10;3.50;;;29.10;77.20;;;;;;4878862;29;20052;-90
2022/05/18 12:35:01;;;;;;;5.80;3.88;;;28.80;76.70;;;;;;4889576;29;20085;-89
2022/05/18 12:38:14;;;;;;;3.40;2.70;;;28.70;77.50;;;;;;4899633;29;20048;-90
2022/05/18 12:41:10;;;;;;;;;;;;;;;;;;;;;
2022/05/18 12:43:53;;;;;;;4.57;3.45;;;28.40;78.10;;;;;;4896440;29;20067;-90
2022/05/18 12:47:13;;;;;;;;;;;;;;;;;;;;;
2022/05/18 12:50:02;;;;;;;;;;;;;;;;;;;;;
2022/05/18 12:53:07;;;;;;;;;;;;;;;;;;;;;
2022/05/18 12:56:14;;;;;;;5.68;3.20;;;27.30;80.50;;;;;;4881652;29;20108;-90
2022/05/18 12:59:51;;;;;;;;;;;;;;;;;;;;;
2022/05/18 13:03:00;;;;;;;3.95;2.45;;;28.20;83.20;;;;;;4772995;30;20063;-91
2022/05/18 13:05:48;;;;;;;3.63;2.05;;;27.30;82.80;;;;;;4770942;30;20066;-90
2022/05/18 13:08:33;;;;;;;;;;;;;;;;;;;;;
2022/05/18 13:11:39;;;;;;;3.85;1.88;;;28.10;83.90;;;;;;4773113;30;20094;-90
2022/05/18 13:15:00;;;;;;;4.93;2.10;;;28.40;83.50;;;;;;4757503;29;20051;-91
2022/05/18 13:18:01;;;;;;;3.25;1.95;;;28.00;83.60;;;;;;4845161;29;20052;-90
2022/05/18 13:20:29;;;;;;;3.13;1.90;;;28.10;83.40;;;;;;4882993;29;20052;-90
2022/05/18 13:23:28;;;;;;;4.13;2.67;;;27.30;82.80;;;;;;4883384;29;20051;-90
2022/05/18 13:26:34;;;;;;;;;;;;;;;;;;;;;
2022/05/18 13:29:49;;;;;;;;;;;;;;;;;;;;;
2022/05/18 13:32:33;;;;;;;4.50;2.38;;;28.40;82.10;;;;;;4890548;29;20136;-90
2022/05/18 13:35:20;;;;;;;5.70;2.10;;;28.20;81.60;;;;;;4869132;29;20146;-91
2022/05/18 13:39:03;;;;;;;;;;;;;;;;;;;;;
2022/05/18 13:41:44;;;;;;;;;;;;;;;;;;;;;
2022/05/18 13:45:12;;;;;;;;;;;;;;;;;;;;;
2022/05/18 13:52:04;;;;;;;5.15;3.65;;;29.20;81.90;;;;;;4879791;29;20108;-91
2022/05/18 13:55:14;;;;;;;5.72;3.28;;;29.30;81.90;;;;;;4821261;29;20526;-91
2022/05/18 14:04:54;;;;;;;;;;;;;;;;;;;;;
2022/05/18 14:14:37;;;;;;;;;;;;;;;;;;;;;
2022/05/18 14:21:10;;;;;;;7.78;4.72;;;27.50;85.40;;;;;;4855400;29;20518;-91
2022/05/18 14:24:02;;;;;;;6.95;4.63;;;28.00;86.10;;;;;;4863938;29;20612;-91
2022/05/18 14:27:23;;;;;;;;;;;;;;;;;;;;;
2022/05/18 14:30:25;;;;;;;;;;;;;;;;;;;;;
2022/05/18 14:33:38;;;;;;;6.05;4.38;;;27.20;84.90;;;;;;4862758;29;20135;-91
2022/05/18 14:36:40;;;;;;;7.95;4.60;;;28.10;85.90;;;;;;4847888;29;20057;-91
2022/05/18 14:43:29;;;;;;;;;;;;;;;;;;;;;
2022/05/18 14:46:40;;;;;;;;;;;;;;;;;;;;;
2022/05/18 14:49:41;;;;;;;6.65;4.55;;;28.20;85.50;;;;;;4844456;29;20508;-93
2022/05/18 14:52:43;;;;;;;;;;;;;;;;;;;;;
2022/05/18 14:55:57;;;;;;;7.13;3.10;;;28.50;83.70;;;;;;4843187;29;20497;-92
2022/05/18 14:59:38;;;;;;;;;;;;;;;;;;;;;
2022/05/18 15:02:32;;;;;;;;;;;;;;;;;;;;;
2022/05/18 15:05:30;;;;;;;3.30;2.95;;;28.40;83.60;;;;;;4843951;29;20117;-92
2022/05/18 15:08:47;;;;;;;6.05;3.95;;;28.30;83.80;;;;;;4843372;29;20556;-92
2022/05/18 15:12:08;;;;;;;9.55;4.60;;;28.10;83.70;;;;;;4772470;29;20063;-92
2022/05/18 15:15:00;;;;;;;4.97;4.47;;;29.10;85.00;;;;;;4800683;29;20061;-91
2022/05/18 15:21:11;;;;;;;6.22;3.88;;;28.10;85.70;;;;;;4858964;29;20098;-92
2022/05/18 15:24:19;;;;;;;;;;;;;;;;;;;;;
2022/05/18 15:27:25;;;;;;;;;;;;;;;;;;;;;
2022/05/18 15:30:18;;;;;;;;;;;;;;;;;;;;;
2022/05/18 15:33:00;;;;;;;4.60;4.05;;;27.50;85.00;;;;;;4843362;29;20065;-92
2022/05/18 15:36:08;;;;;;;5.10;3.40;;;27.40;85.90;;;;;;4843809;29;20064;-92
2022/05/18 15:38:34;;;;;;;6.63;5.28;;;27.40;86.60;;;;;;4814437;29;20046;-91
2022/05/18 15:41:24;;;;;;;6.20;3.97;;;27.00;86.10;;;;;;4843333;29;20213;-91
2022/05/18 15:47:01;;;;;;;6.15;3.65;;;27.10;87.40;;;;;;4835017;29;20120;-92
2022/05/18 15:50:02;;;;;;;8.68;4.97;;;27.00;87.70;;;;;;4843819;29;20057;-91
2022/05/18 15:52:39;;;;;;;8.20;4.25;;;26.80;88.80;;;;;;4835036;29;20062;-91
2022/05/18 15:55:14;;;;;;;4.25;3.20;;;26.70;88.00;;;;;;4843300;29;20045;-91
2022/05/18 15:57:45;;;;;;;5.70;3.85;;;26.60;88.10;;;;;;4867600;29;20112;-91
2022/05/18 16:00:39;;;;;;;8.18;5.78;;;26.10;88.50;;;;;;4862407;29;20115;-92
2022/05/18 16:03:09;;;;;;;7.75;6.50;;;26.50;90.40;;;;;;4822659;29;20061;-92
2022/05/18 16:05:39;;;;;;;13.27;7.57;;;26.20;90.40;;;;;;4858749;29;20109;-92
2022/05/18 16:08:38;;;;;;;13.10;6.47;;;26.00;90.90;;;;;;4858549;29;20037;-92
2022/05/18 16:11:06;;;;;;;11.07;7.22;;;25.90;91.30;;;;;;4842052;29;20109;-92
2022/05/18 16:13:38;;;;;;;10.60;7.75;;;25.70;91.80;;;;;;4844186;29;20121;-93
2022/05/18 16:16:17;;;;;;;13.20;7.90;;;25.70;92.00;;;;;;4858621;29;20049;-92
2022/05/18 16:18:52;;;;;;;16.98;8.68;;;25.70;92.10;;;;;;4846392;29;20046;-92
2022/05/18 16:21:32;;;;;;;13.48;8.13;;;25.50;92.30;;;;;;4834807;29;20509;-92
2022/05/18 16:24:18;;;;;;;11.30;7.32;;;24.60;92.40;;;;;;4860194;29;20053;-92
2022/05/18 16:26:52;;;;;;;9.85;6.25;;;25.60;92.60;;;;;;4859104;29;20045;-91
2022/05/18 16:29:26;;;;;;;13.02;7.50;;;25.50;92.80;;;;;;4844386;29;20046;-92
2022/05/18 16:32:04;;;;;;;;;;;;;;;;;;;;;
2022/05/18 16:35:01;;;;;;;16.70;8.38;;;25.60;93.50;;;;;;4843302;29;20064;-92
2022/05/18 16:40:31;;;;;;;13.65;7.18;;;25.50;93.70;;;;;;4840999;29;20049;-92
2022/05/18 16:43:00;;;;;;;9.48;6.97;;;25.20;93.70;;;;;;4843265;29;20049;-91
2022/05/18 16:45:30;;;;;;;11.13;7.72;;;25.00;93.70;;;;;;4842511;29;20054;-91
2022/05/18 16:48:08;;;;;;;12.07;7.47;;;24.30;93.70;;;;;;4843694;29;20053;-92
2022/05/18 16:51:02;;;;;;;14.30;6.60;;;24.60;93.90;;;;;;4846814;29;20050;-91
2022/05/18 16:53:47;;;;;;;11.98;7.13;;;24.70;94.20;;;;;;4862140;29;20053;-92
2022/05/18 16:56:22;;;;;;;9.57;6.57;;;24.70;94.20;;;;;;4830572;29;20084;-91
2022/05/18 16:59:11;;;;;;;9.38;6.60;;;24.60;94.30;;;;;;4846265;29;20444;-91
2022/05/18 17:02:00;;;;;;;;;;;;;;;;;;;;;
2022/05/18 17:07:42;;;;;;;;;;;;;;;;;;;;;
2022/05/18 17:10:14;;;;;;;11.98;6.93;;;24.70;94.80;;;;;;4845754;29;20054;-90
2022/05/18 17:12:47;;;;;;;14.75;8.05;;;24.10;94.70;;;;;;4861731;29;20046;-91
2022/05/18 17:15:16;;;;;;;12.00;6.35;;;23.40;94.90;;;;;;4861173;29;20069;-91
2022/05/18 17:17:47;;;;;;;10.05;6.72;;;23.80;95.20;;;;;;4845563;29;20049;-91
2022/05/18 17:20:13;;;;;;;9.00;6.22;;;23.70;95.20;;;;;;4829183;29;20057;-91
2022/05/18 17:22:59;;;;;;;9.38;6.32;;;23.60;95.70;;;;;;4846741;29;20382;-91
2022/05/18 17:25:32;;;;;;;13.07;7.97;;;23.80;96.10;;;;;;4830709;29;20061;-92
2022/05/18 17:31:13;;;;;;;7.85;5.82;;;23.50;95.80;;;;;;4857839;29;19948;-91
2022/05/18 17:33:59;;;;;;;8.48;6.40;;;23.40;95.90;;;;;;4846080;29;20397;-91
2022/05/18 17:36:33;;;;;;;7.22;5.88;;;23.30;96.00;;;;;;4821918;29;20057;-91
2022/05/18 17:39:04;;;;;;;10.65;7.32;;;23.30;95.90;;;;;;4860391;29;20049;-91
2022/05/18 17:41:45;;;;;;;11.07;5.70;;;23.20;96.10;;;;;;4860968;29;20045;-91
2022/05/18 17:44:34;;;;;;;8.43;5.38;;;23.20;96.30;;;;;;4847498;29;20468;-91
2022/05/18 17:47:27;;;;;;;11.95;6.40;;;23.10;96.60;;;;;;4848190;29;20049;-91
2022/05/18 17:50:11;;;;;;;11.02;6.05;;;22.90;96.40;;;;;;4864206;29;20053;-91
2022/05/18 17:53:05;;;;;;;10.95;6.38;;;22.20;96.50;;;;;;4880642;29;20123;-91
2022/05/18 17:55:46;;;;;;;11.23;6.20;;;22.60;96.90;;;;;;4882638;29;20057;-91
2022/05/18 17:58:14;;;;;;;9.27;6.38;;;22.50;96.80;;;;;;4880444;29;20084;-91
2022/05/18 18:00:48;;;;;;;7.47;4.82;;;22.30;96.80;;;;;;4866488;29;20542;-91
2022/05/18 18:03:25;;;;;;;10.05;5.72;;;23.00;97.10;;;;;;4881245;29;20503;-91
2022/05/18 18:06:07;;;;;;;6.70;5.47;;;22.20;97.30;;;;;;4882229;29;20053;-90
2022/05/18 18:08:40;;;;;;;8.95;5.78;;;22.10;97.60;;;;;;4882569;29;20048;-91
2022/05/18 18:11:09;;;;;;;5.88;4.07;;;22.10;97.80;;;;;;4865705;29;20053;-90
2022/05/18 18:13:37;;;;;;;7.40;5.22;;;21.90;97.80;;;;;;4882175;29;20056;-90
2022/05/18 18:16:04;;;;;;;6.00;4.88;;;21.80;97.90;;;;;;4866039;29;20056;-91
2022/05/18 18:18:40;;;;;;;7.75;4.65;;;21.80;97.80;;;;;;4881678;29;20139;-91
2022/05/18 18:21:17;;;;;;;7.68;4.63;;;21.70;97.80;;;;;;4881476;29;20063;-91